Time;durP1;ratioP1;P1;durP2;ratioP2;P2;SDS_P1;SDS_P2;PMS_P1;PMS_P2;Temp;Humidity;BMP_temperature;BMP_pressure;BME280_temperature;BME280_humidity;BME280_pressure;Samples;Min_cycle;Max_cycle;Signal;HPM_P1;HPM_P2
2020/12/26 00:04:37;;;;;;;;;76.50;62.25;;;;;;;;12317112;28;8884;-56
2020/12/26 00:10:38;;;;;;;;;74.50;58.50;;;;;;;;12310691;28;9705;-54
2020/12/26 00:16:39;;;;;;;;;61.00;43.25;;;;;;;;12315481;28;8859;-54
2020/12/26 00:22:51;;;;;;;;;69.50;55.50;;;;;;;;12312949;28;8825;-53
2020/12/26 00:28:53;;;;;;;;;70.25;55.25;;;;;;;;12308265;28;8833;-54
2020/12/26 00:34:54;;;;;;;;;67.00;54.50;;;;;;;;12313949;28;8860;-55
2020/12/26 00:40:55;;;;;;;;;70.50;56.50;;;;;;;;12307107;28;8827;-56
2020/12/26 00:46:57;;;;;;;;;46.00;42.50;;;;;;;;12322625;28;8879;-55
2020/12/26 00:53:12;;;;;;;;;68.25;54.25;;;;;;;;12285474;28;9631;-55
2020/12/26 00:59:13;;;;;;;;;61.00;51.00;;;;;;;;12296610;28;8929;-55
2020/12/26 01:05:15;;;;;;;;;64.50;54.50;;;;;;;;12304856;28;8867;-56
2020/12/26 01:11:16;;;;;;;;;62.00;52.25;;;;;;;;12305560;28;8842;-54
2020/12/26 01:17:18;;;;;;;;;61.00;48.75;;;;;;;;12314802;28;8866;-55
2020/12/26 01:23:32;;;;;;;;;56.50;45.75;;;;;;;;12310316;28;8833;-55
2020/12/26 01:29:34;;;;;;;;;62.00;48.75;;;;;;;;12309868;28;8843;-55
2020/12/26 01:35:36;;;;;;;;;59.50;46.25;;;;;;;;12311191;28;9452;-55
2020/12/26 01:41:37;;;;;;;;;51.25;43.75;;;;;;;;12317831;28;8851;-55
2020/12/26 01:47:39;;;;;;;;;45.00;41.25;;;;;;;;12306035;28;9001;-56
2020/12/26 01:53:50;;;;;;;;;42.00;39.25;;;;;;;;12310433;28;9031;-55
2020/12/26 01:59:51;;;;;;;;;35.75;30.00;;;;;;;;12306678;28;8868;-55
2020/12/26 02:05:56;;;;;;;;;18.75;15.50;;;;;;;;12303281;28;8848;-56
2020/12/26 02:11:57;;;;;;;;;33.00;27.75;;;;;;;;12304622;28;8833;-54
2020/12/26 02:17:59;;;;;;;;;24.75;23.75;;;;;;;;12310153;28;8843;-55
2020/12/26 02:24:10;;;;;;;;;24.00;23.75;;;;;;;;12304863;28;8937;-55
2020/12/26 02:30:11;;;;;;;;;20.25;17.00;;;;;;;;12311751;28;8865;-54
2020/12/26 02:36:13;;;;;;;;;16.50;16.50;;;;;;;;12312660;28;9594;-56
2020/12/26 02:42:15;;;;;;;;;15.25;14.00;;;;;;;;12304114;28;8992;-56
2020/12/26 02:48:16;;;;;;;;;13.50;12.00;;;;;;;;12307483;28;8882;-54
2020/12/26 02:54:27;;;;;;;;;9.75;9.75;;;;;;;;12303430;28;8966;-56
2020/12/26 03:00:29;;;;;;;;;13.00;12.00;;;;;;;;12301433;28;8863;-56
2020/12/26 03:06:30;;;;;;;;;12.25;9.75;;;;;;;;12317341;28;8868;-53
2020/12/26 03:12:32;;;;;;;;;5.50;5.50;;;;;;;;12314805;28;8846;-54
2020/12/26 03:18:33;;;;;;;;;1.25;1.25;;;;;;;;12318231;28;8837;-54
2020/12/26 03:24:47;;;;;;;;;0.75;0.75;;;;;;;;12311200;28;9593;-55
2020/12/26 03:30:48;;;;;;;;;0.75;0.75;;;;;;;;12317152;28;8878;-56
2020/12/26 03:36:50;;;;;;;;;1.00;1.00;;;;;;;;12314348;28;9060;-56
2020/12/26 03:42:51;;;;;;;;;1.00;1.00;;;;;;;;12324235;28;9617;-56
2020/12/26 03:48:53;;;;;;;;;1.00;1.00;;;;;;;;12310652;28;8882;-55
2020/12/26 03:55:05;;;;;;;;;1.00;1.00;;;;;;;;12318764;28;8835;-56
2020/12/26 04:01:07;;;;;;;;;1.00;1.00;;;;;;;;12314738;28;9542;-55
2020/12/26 04:07:08;;;;;;;;;1.50;1.50;;;;;;;;12314568;28;8857;-55
2020/12/26 04:13:09;;;;;;;;;1.00;0.00;;;;;;;;12308806;28;8904;-56
2020/12/26 04:19:11;;;;;;;;;1.00;1.00;;;;;;;;12323320;28;8880;-54
2020/12/26 04:25:26;;;;;;;;;1.25;1.25;;;;;;;;12305366;28;8891;-54
2020/12/26 04:31:28;;;;;;;;;1.00;1.00;;;;;;;;12314503;28;8842;-54
2020/12/26 04:37:29;;;;;;;;;1.00;1.00;;;;;;;;12308053;28;8882;-56
2020/12/26 04:43:31;;;;;;;;;3.50;1.00;;;;;;;;12313151;28;8870;-54
2020/12/26 04:49:34;;;;;;;;;1.00;1.00;;;;;;;;12314825;28;8847;-54
2020/12/26 04:55:49;;;;;;;;;4.00;4.00;;;;;;;;12308432;28;8853;-54
2020/12/26 05:01:51;;;;;;;;;1.00;1.00;;;;;;;;12296026;28;8873;-56
2020/12/26 05:07:53;;;;;;;;;2.00;2.00;;;;;;;;12312437;28;10279;-54
2020/12/26 05:13:54;;;;;;;;;4.50;4.50;;;;;;;;12319078;28;8871;-57
2020/12/26 05:19:56;;;;;;;;;4.00;4.00;;;;;;;;12308939;28;8841;-55
2020/12/26 05:26:08;;;;;;;;;6.25;6.25;;;;;;;;12311234;28;8941;-55
2020/12/26 05:32:14;;;;;;;;;4.25;4.00;;;;;;;;12313662;28;8867;-55
2020/12/26 05:38:22;;;;;;;;;4.75;4.25;;;;;;;;12312682;28;9373;-55
2020/12/26 05:44:32;;;;;;;;;3.00;3.00;;;;;;;;12308896;28;8867;-55
2020/12/26 05:50:34;;;;;;;;;4.00;4.00;;;;;;;;12308769;28;8844;-55
2020/12/26 05:56:36;;;;;;;;;3.00;3.00;;;;;;;;12308035;28;9613;-56
2020/12/26 06:02:38;;;;;;;;;7.50;5.00;;;;;;;;12315470;28;8845;-55
2020/12/26 06:08:40;;;;;;;;;6.50;5.00;;;;;;;;12311734;28;8872;-55
2020/12/26 06:14:47;;;;;;;;;4.00;2.00;;;;;;;;12306607;28;8847;-57
2020/12/26 06:20:52;;;;;;;;;5.50;5.00;;;;;;;;12311246;28;8865;-55
2020/12/26 06:26:59;;;;;;;;;3.00;3.00;;;;;;;;12310267;28;8860;-55
2020/12/26 06:33:00;;;;;;;;;4.50;4.00;;;;;;;;12306698;28;8967;-56
2020/12/26 06:39:27;;;;;;;;;5.50;4.75;;;;;;;;12318639;28;8859;-55
2020/12/26 06:45:35;;;;;;;;;5.50;4.25;;;;;;;;12307163;28;8924;-53
2020/12/26 06:51:43;;;;;;;;;1.50;1.00;;;;;;;;12319269;28;8929;-56
2020/12/26 06:57:44;;;;;;;;;4.50;3.00;;;;;;;;12319319;28;8831;-56
2020/12/26 07:03:45;;;;;;;;;2.50;2.50;;;;;;;;12313379;28;8875;-53
2020/12/26 07:09:47;;;;;;;;;5.25;4.00;;;;;;;;12319901;28;8856;-55
2020/12/26 07:15:48;;;;;;;;;5.00;5.00;;;;;;;;12312260;28;8856;-54
2020/12/26 07:21:51;;;;;;;;;4.25;4.25;;;;;;;;12316763;28;8884;-54
2020/12/26 07:27:53;;;;;;;;;5.00;4.00;;;;;;;;12315529;28;8885;-56
2020/12/26 07:33:55;;;;;;;;;3.50;3.50;;;;;;;;12314845;28;8851;-55
2020/12/26 07:39:56;;;;;;;;;5.00;4.00;;;;;;;;12320246;28;8887;-55
2020/12/26 07:45:58;;;;;;;;;6.50;4.25;;;;;;;;12311581;28;8969;-55
2020/12/26 07:52:04;;;;;;;;;4.00;4.00;;;;;;;;12314216;28;8854;-55
2020/12/26 07:58:12;;;;;;;;;4.50;4.00;;;;;;;;12313218;28;9099;-57
2020/12/26 08:04:15;;;;;;;;;9.50;6.50;;;;;;;;12308786;28;8867;-56
2020/12/26 08:10:18;;;;;;;;;0.75;0.50;;;;;;;;12317303;28;8841;-54
2020/12/26 08:16:19;;;;;;;;;2.00;2.00;;;;;;;;12310975;28;8849;-55
2020/12/26 08:22:22;;;;;;;;;6.25;4.75;;;;;;;;12313190;28;8851;-53
2020/12/26 08:28:24;;;;;;;;;7.50;5.25;;;;;;;;12309660;28;8859;-55
2020/12/26 08:34:49;;;;;;;;;3.50;3.50;;;;;;;;12313457;28;8834;-55
2020/12/26 08:40:56;;;;;;;;;2.00;2.00;;;;;;;;12315957;28;8879;-55
2020/12/26 08:46:58;;;;;;;;;3.00;3.00;;;;;;;;12310147;28;8859;-55
2020/12/26 08:53:03;;;;;;;;;4.00;2.00;;;;;;;;12315201;28;8872;-56
2020/12/26 08:59:05;;;;;;;;;3.50;3.50;;;;;;;;12306789;28;8873;-57
2020/12/26 09:05:44;;;;;;;;;3.00;3.00;;;;;;;;12289959;28;8877;-56
2020/12/26 09:11:58;;;;;;;;;4.00;2.00;;;;;;;;12268434;28;8983;-56
2020/12/26 09:18:15;;;;;;;;;4.00;4.00;;;;;;;;12297856;28;9261;-56
2020/12/26 09:24:20;;;;;;;;;5.00;5.00;;;;;;;;12304483;28;8841;-57
2020/12/26 09:30:21;;;;;;;;;6.50;4.75;;;;;;;;12308067;28;8899;-55
2020/12/26 09:36:25;;;;;;;;;4.00;4.00;;;;;;;;12313769;28;8850;-54
2020/12/26 09:42:27;;;;;;;;;6.50;6.50;;;;;;;;12309331;28;8833;-55
2020/12/26 09:48:28;;;;;;;;;5.00;4.00;;;;;;;;12312957;28;8872;-56
2020/12/26 09:54:29;;;;;;;;;4.25;4.25;;;;;;;;12306029;28;8926;-57
2020/12/26 10:00:31;;;;;;;;;4.00;4.00;;;;;;;;12309709;28;9055;-56
2020/12/26 10:06:32;;;;;;;;;8.25;7.75;;;;;;;;12307318;28;9569;-53
2020/12/26 10:12:36;;;;;;;;;6.50;4.75;;;;;;;;12303825;28;8872;-57
2020/12/26 10:18:38;;;;;;;;;5.50;5.50;;;;;;;;12303862;28;9628;-55
2020/12/26 10:24:40;;;;;;;;;5.00;4.50;;;;;;;;12311257;28;8849;-58
2020/12/26 10:30:41;;;;;;;;;7.25;7.00;;;;;;;;12305674;28;8869;-55
2020/12/26 10:36:43;;;;;;;;;7.25;7.25;;;;;;;;12310674;28;8862;-57
2020/12/26 10:42:45;;;;;;;;;8.00;8.00;;;;;;;;12303710;28;8855;-57
2020/12/26 10:48:46;;;;;;;;;7.50;7.50;;;;;;;;12307046;28;8860;-56
2020/12/26 10:54:47;;;;;;;;;10.25;10.25;;;;;;;;12311212;28;8872;-55
2020/12/26 11:00:49;;;;;;;;;11.00;9.00;;;;;;;;12304023;28;8851;-56
2020/12/26 11:06:50;;;;;;;;;10.75;9.25;;;;;;;;12310564;28;8886;-57
2020/12/26 11:12:52;;;;;;;;;14.75;12.25;;;;;;;;12308321;28;8845;-57
2020/12/26 11:18:53;;;;;;;;;18.00;15.25;;;;;;;;12307172;28;9586;-56
2020/12/26 11:24:56;;;;;;;;;21.25;17.25;;;;;;;;12317474;28;9621;-57
2020/12/26 11:30:58;;;;;;;;;16.00;16.00;;;;;;;;12311149;28;8871;-56
2020/12/26 11:36:59;;;;;;;;;15.25;15.00;;;;;;;;12318551;28;8851;-54
2020/12/26 11:43:03;;;;;;;;;19.00;19.00;;;;;;;;12316153;28;8879;-56
2020/12/26 11:49:05;;;;;;;;;16.75;14.25;;;;;;;;12314491;28;8878;-57
2020/12/26 11:55:06;;;;;;;;;18.25;16.75;;;;;;;;12315652;28;8863;-57
2020/12/26 12:01:08;;;;;;;;;14.50;14.50;;;;;;;;12318233;28;8845;-57
2020/12/26 12:07:11;;;;;;;;;14.25;14.25;;;;;;;;12308702;28;8860;-55
2020/12/26 12:13:13;;;;;;;;;20.75;20.75;;;;;;;;12322139;28;8883;-55
2020/12/26 12:19:15;;;;;;;;;16.75;16.75;;;;;;;;12307697;28;8837;-55
2020/12/26 12:25:17;;;;;;;;;21.50;17.75;;;;;;;;12309579;28;8884;-55
2020/12/26 12:31:18;;;;;;;;;18.00;16.75;;;;;;;;12308179;28;8875;-56
2020/12/26 12:37:20;;;;;;;;;20.25;16.75;;;;;;;;12316526;28;8850;-54
2020/12/26 12:43:21;;;;;;;;;13.50;13.50;;;;;;;;12311268;28;9609;-57
2020/12/26 12:49:22;;;;;;;;;20.00;17.75;;;;;;;;12314151;28;8991;-57
2020/12/26 12:55:24;;;;;;;;;20.50;20.50;;;;;;;;12308343;28;8836;-56
2020/12/26 13:01:25;;;;;;;;;20.75;19.00;;;;;;;;12307914;28;8831;-57
2020/12/26 13:07:27;;;;;;;;;28.00;22.00;;;;;;;;12313865;28;8851;-57
2020/12/26 13:13:28;;;;;;;;;19.75;16.00;;;;;;;;12309113;28;10022;-56
2020/12/26 13:19:29;;;;;;;;;18.00;14.75;;;;;;;;12314961;28;8833;-58
2020/12/26 13:25:31;;;;;;;;;19.00;16.00;;;;;;;;12306908;28;8891;-54
2020/12/26 13:31:34;;;;;;;;;16.00;14.75;;;;;;;;12308072;28;8863;-56
2020/12/26 13:37:35;;;;;;;;;27.25;20.75;;;;;;;;12316065;28;8874;-57
2020/12/26 13:43:37;;;;;;;;;26.00;24.00;;;;;;;;12310358;28;8951;-57
2020/12/26 13:49:38;;;;;;;;;21.75;19.75;;;;;;;;12304757;28;8923;-58
2020/12/26 13:55:40;;;;;;;;;28.00;25.50;;;;;;;;12311148;28;8844;-56
2020/12/26 14:01:45;;;;;;;;;30.75;27.00;;;;;;;;12307348;28;8839;-57
2020/12/26 14:07:46;;;;;;;;;27.25;27.00;;;;;;;;12309396;28;8862;-58
2020/12/26 14:13:48;;;;;;;;;23.00;20.00;;;;;;;;12308859;28;9646;-56
2020/12/26 14:19:50;;;;;;;;;24.50;23.75;;;;;;;;12312042;28;8893;-57
2020/12/26 14:25:55;;;;;;;;;21.00;21.00;;;;;;;;12305841;28;8886;-58
2020/12/26 14:31:58;;;;;;;;;15.75;13.00;;;;;;;;12310053;28;8837;-57
2020/12/26 14:38:03;;;;;;;;;19.75;16.50;;;;;;;;12305987;28;8836;-57
2020/12/26 14:44:05;;;;;;;;;21.00;17.50;;;;;;;;12287825;28;8839;-57
2020/12/26 14:50:06;;;;;;;;;18.75;16.50;;;;;;;;12312172;28;8987;-55
2020/12/26 14:56:11;;;;;;;;;20.25;18.50;;;;;;;;12312857;28;8860;-57
2020/12/26 15:02:19;;;;;;;;;15.50;15.00;;;;;;;;12312331;28;8899;-55
2020/12/26 15:08:21;;;;;;;;;18.25;18.25;;;;;;;;12312029;28;8884;-57
2020/12/26 15:14:22;;;;;;;;;20.25;16.75;;;;;;;;12313687;28;8855;-57
2020/12/26 15:20:23;;;;;;;;;21.25;20.25;;;;;;;;12300652;28;8839;-56
2020/12/26 15:26:25;;;;;;;;;22.75;19.50;;;;;;;;12321185;28;8852;-54
2020/12/26 15:32:38;;;;;;;;;13.00;13.00;;;;;;;;12318781;28;8842;-56
2020/12/26 15:38:39;;;;;;;;;15.00;15.00;;;;;;;;12313362;28;8843;-55
2020/12/26 15:44:41;;;;;;;;;20.00;18.50;;;;;;;;12319513;28;8860;-57
2020/12/26 15:50:44;;;;;;;;;18.50;17.75;;;;;;;;12313999;28;8853;-56
2020/12/26 15:56:45;;;;;;;;;19.25;16.50;;;;;;;;12308472;28;8867;-56
2020/12/26 16:02:58;;;;;;;;;19.50;19.00;;;;;;;;12317538;28;8913;-55
2020/12/26 16:09:00;;;;;;;;;15.25;15.00;;;;;;;;12312631;28;8875;-56
2020/12/26 16:15:03;;;;;;;;;24.50;18.75;;;;;;;;12315848;28;8880;-56
2020/12/26 16:21:04;;;;;;;;;18.00;18.00;;;;;;;;12311357;28;8836;-55
2020/12/26 16:27:06;;;;;;;;;9.75;9.50;;;;;;;;12308032;28;8873;-55
2020/12/26 16:33:19;;;;;;;;;12.00;12.00;;;;;;;;12306088;28;8856;-57
2020/12/26 16:39:20;;;;;;;;;15.00;12.00;;;;;;;;12312774;28;8866;-58
2020/12/26 16:45:21;;;;;;;;;16.50;15.00;;;;;;;;12308718;28;8994;-57
2020/12/26 16:51:24;;;;;;;;;12.00;12.00;;;;;;;;12313581;28;8941;-58
2020/12/26 16:57:27;;;;;;;;;10.50;7.00;;;;;;;;12315106;28;8848;-58
2020/12/26 17:03:36;;;;;;;;;13.00;12.00;;;;;;;;12309600;28;8853;-53
2020/12/26 17:09:37;;;;;;;;;9.00;9.00;;;;;;;;12307468;28;8899;-57
2020/12/26 17:15:41;;;;;;;;;9.25;9.25;;;;;;;;12309501;28;8868;-54
2020/12/26 17:21:42;;;;;;;;;13.00;12.75;;;;;;;;12310992;28;8851;-56
2020/12/26 17:27:44;;;;;;;;;11.50;10.00;;;;;;;;12312736;28;8843;-58
2020/12/26 17:33:54;;;;;;;;;16.00;13.75;;;;;;;;12308288;28;8846;-57
2020/12/26 17:39:56;;;;;;;;;9.00;9.00;;;;;;;;12301291;28;8933;-54
2020/12/26 17:45:57;;;;;;;;;10.00;10.00;;;;;;;;12313913;28;8885;-58
2020/12/26 17:51:59;;;;;;;;;12.50;9.75;;;;;;;;12309166;28;8930;-57
2020/12/26 17:58:00;;;;;;;;;18.50;15.50;;;;;;;;12309052;28;9610;-57
2020/12/26 18:04:12;;;;;;;;;15.75;14.50;;;;;;;;12295185;28;8973;-57
2020/12/26 18:10:13;;;;;;;;;14.25;14.25;;;;;;;;12312733;28;8923;-55
2020/12/26 18:16:15;;;;;;;;;15.50;15.50;;;;;;;;12302337;28;8864;-56
2020/12/26 18:22:16;;;;;;;;;12.00;12.00;;;;;;;;12311704;28;8849;-55
2020/12/26 18:28:18;;;;;;;;;14.00;12.25;;;;;;;;12311863;28;8867;-56
2020/12/26 18:34:30;;;;;;;;;5.25;5.00;;;;;;;;12317091;28;8838;-56
2020/12/26 18:40:32;;;;;;;;;9.25;9.00;;;;;;;;12314675;28;8859;-53
2020/12/26 18:46:33;;;;;;;;;12.75;10.00;;;;;;;;12304524;28;9445;-55
2020/12/26 18:52:35;;;;;;;;;12.00;12.00;;;;;;;;12314736;28;8874;-56
2020/12/26 18:58:36;;;;;;;;;17.25;15.25;;;;;;;;12319749;28;8970;-55
2020/12/26 19:04:49;;;;;;;;;13.00;13.00;;;;;;;;12312124;28;8847;-57
2020/12/26 19:10:51;;;;;;;;;11.50;11.50;;;;;;;;12320157;28;8871;-57
2020/12/26 19:16:52;;;;;;;;;13.75;12.00;;;;;;;;12312525;28;8839;-57
2020/12/26 19:22:54;;;;;;;;;14.00;14.00;;;;;;;;12320503;28;8849;-54
2020/12/26 19:28:55;;;;;;;;;13.00;12.00;;;;;;;;12311216;28;8852;-56
2020/12/26 19:35:10;;;;;;;;;12.00;11.50;;;;;;;;12312765;28;8851;-56
2020/12/26 19:41:11;;;;;;;;;9.50;8.00;;;;;;;;12315871;28;8882;-54
2020/12/26 19:47:13;;;;;;;;;12.00;11.00;;;;;;;;12314431;28;8851;-60
2020/12/26 19:53:15;;;;;;;;;10.00;8.50;;;;;;;;12318408;28;8859;-56
2020/12/26 19:59:16;;;;;;;;;9.50;9.50;;;;;;;;12310591;28;8841;-53
2020/12/26 20:05:28;;;;;;;;;10.00;8.50;;;;;;;;12292563;28;8886;-56
2020/12/26 20:11:29;;;;;;;;;7.50;6.25;;;;;;;;12315002;28;8833;-54
2020/12/26 20:17:31;;;;;;;;;6.75;6.75;;;;;;;;12312740;28;8948;-59
2020/12/26 20:23:33;;;;;;;;;12.50;10.50;;;;;;;;12308533;28;8839;-54
2020/12/26 20:29:34;;;;;;;;;11.50;11.50;;;;;;;;12316593;28;8978;-54
2020/12/26 20:35:47;;;;;;;;;14.50;12.00;;;;;;;;12310938;28;8835;-57
2020/12/26 20:41:48;;;;;;;;;13.00;12.00;;;;;;;;12309792;28;8833;-56
2020/12/26 20:47:50;;;;;;;;;12.75;11.00;;;;;;;;12311427;28;8839;-55
2020/12/26 20:53:51;;;;;;;;;15.50;12.00;;;;;;;;12301772;28;8896;-55
2020/12/26 20:59:53;;;;;;;;;10.50;10.00;;;;;;;;12314022;28;8837;-56
2020/12/26 21:06:16;;;;;;;;;12.00;9.50;;;;;;;;12307014;28;8842;-55
2020/12/26 21:12:18;;;;;;;;;12.00;12.00;;;;;;;;12306659;28;8887;-55
2020/12/26 21:18:20;;;;;;;;;13.50;9.00;;;;;;;;12307502;28;8953;-53
2020/12/26 21:24:21;;;;;;;;;9.75;9.75;;;;;;;;12313624;28;8897;-57
2020/12/26 21:30:24;;;;;;;;;10.00;9.00;;;;;;;;12308891;28;8869;-57
2020/12/26 21:36:33;;;;;;;;;7.00;7.00;;;;;;;;12314467;28;8869;-56
2020/12/26 21:42:34;;;;;;;;;5.00;4.00;;;;;;;;12312460;28;8854;-55
2020/12/26 21:48:36;;;;;;;;;9.25;9.25;;;;;;;;12310500;28;8839;-55
2020/12/26 21:54:37;;;;;;;;;10.00;8.50;;;;;;;;12308003;28;8874;-56
2020/12/26 22:00:39;;;;;;;;;3.75;3.00;;;;;;;;12299337;28;8843;-56
2020/12/26 22:06:47;;;;;;;;;11.50;9.50;;;;;;;;12311972;28;8984;-55
2020/12/26 22:12:50;;;;;;;;;9.50;9.50;;;;;;;;12308123;28;8867;-57
2020/12/26 22:18:51;;;;;;;;;12.00;11.50;;;;;;;;12310599;28;9358;-55
2020/12/26 22:24:54;;;;;;;;;12.00;11.00;;;;;;;;12308122;28;8832;-56
2020/12/26 22:30:55;;;;;;;;;10.50;10.50;;;;;;;;12306578;28;8842;-54
2020/12/26 22:37:10;;;;;;;;;9.50;9.00;;;;;;;;12312731;28;8847;-56
2020/12/26 22:43:11;;;;;;;;;9.25;5.50;;;;;;;;12291126;28;8880;-53
2020/12/26 22:49:12;;;;;;;;;8.50;8.50;;;;;;;;12303859;28;8867;-55
2020/12/26 22:55:14;;;;;;;;;6.25;6.00;;;;;;;;12305374;28;8883;-53
2020/12/26 23:01:17;;;;;;;;;11.00;9.25;;;;;;;;12304977;28;8942;-55
2020/12/26 23:07:27;;;;;;;;;7.00;4.00;;;;;;;;12302423;28;8853;-56
2020/12/26 23:13:29;;;;;;;;;10.00;10.00;;;;;;;;12308050;28;8857;-53
2020/12/26 23:19:30;;;;;;;;;8.25;8.25;;;;;;;;12321328;28;8837;-55
2020/12/26 23:25:31;;;;;;;;;14.25;10.00;;;;;;;;12314164;28;8865;-55
2020/12/26 23:31:33;;;;;;;;;8.00;8.00;;;;;;;;12295974;28;8819;-55
2020/12/26 23:37:48;;;;;;;;;11.50;9.50;;;;;;;;12318031;28;8848;-54
2020/12/26 23:43:50;;;;;;;;;4.50;4.50;;;;;;;;12312394;28;8839;-55
2020/12/26 23:49:52;;;;;;;;;8.50;8.00;;;;;;;;12319682;28;8865;-53
2020/12/26 23:55:54;;;;;;;;;6.75;6.75;;;;;;;;12314846;28;8860;-54
